Time;durP1;ratioP1;P1;durP2;ratioP2;P2;SDS_P1;SDS_P2;PMS_P1;PMS_P2;Temp;Humidity;BMP_temperature;BMP_pressure;BME280_temperature;BME280_humidity;BME280_pressure;Samples;Min_cycle;Max_cycle;Signal;HPM_P1;HPM_P2
2022/12/19 00:01:39;;;;;;;108.82;46.58;;;;;;;;;;6218081;28;19917;-80
2022/12/19 00:04:39;;;;;;;105.63;43.23;;;;;;;;;;6218154;28;20529;-80
2022/12/19 00:07:39;;;;;;;80.53;38.30;;;;;;;;;;6216619;28;20010;-80
2022/12/19 00:10:40;;;;;;;87.87;39.87;;;;;;;;;;6217732;28;20014;-80
2022/12/19 00:13:40;;;;;;;78.13;36.87;;;;;;;;;;6217209;28;20033;-80
2022/12/19 00:16:40;;;;;;;88.13;41.37;;;;;;;;;;6217444;28;20097;-80
2022/12/19 00:19:41;;;;;;;90.40;42.23;;;;;;;;;;6217148;28;20075;-81
2022/12/19 00:22:41;;;;;;;79.82;38.88;;;;;;;;;;6218021;28;20486;-81
2022/12/19 00:25:44;;;;;;;77.20;36.60;;;;;;;;;;6217244;28;20033;-82
2022/12/19 00:28:46;;;;;;;80.22;35.30;;;;;;;;;;6229772;28;20022;-81
2022/12/19 00:31:46;;;;;;;;;;;;;;;;;;6226999;28;20432;-81
2022/12/19 00:34:46;;;;;;;78.47;31.83;;;;;;;;;;6222715;28;20373;-81
2022/12/19 00:37:46;;;;;;;62.33;27.00;;;;;;;;;;6215910;28;20177;-81
2022/12/19 00:40:47;;;;;;;59.60;29.43;;;;;;;;;;6219646;28;20278;-82
2022/12/19 00:43:54;;;;;;;63.67;26.48;;;;;;;;;;6219589;28;20014;-81
2022/12/19 00:46:54;;;;;;;62.30;26.60;;;;;;;;;;6220011;28;20413;-81
2022/12/19 00:49:54;;;;;;;60.27;25.67;;;;;;;;;;6216147;28;20156;-81
2022/12/19 00:52:54;;;;;;;62.27;26.03;;;;;;;;;;6217007;28;20026;-81
2022/12/19 00:55:55;;;;;;;60.07;26.20;;;;;;;;;;6224535;28;20026;-81
2022/12/19 00:58:55;;;;;;;61.33;26.80;;;;;;;;;;6219119;28;20157;-81
2022/12/19 01:01:55;;;;;;;47.23;20.77;;;;;;;;;;6215199;28;20473;-80
2022/12/19 01:04:56;;;;;;;63.63;25.80;;;;;;;;;;6217428;28;20024;-80
2022/12/19 01:07:56;;;;;;;60.90;26.07;;;;;;;;;;6217106;28;20033;-80
2022/12/19 01:10:56;;;;;;;67.57;27.55;;;;;;;;;;6214680;28;20021;-80
2022/12/19 01:13:56;;;;;;;51.47;22.17;;;;;;;;;;6215838;28;20021;-79
2022/12/19 01:16:56;;;;;;;71.00;27.83;;;;;;;;;;6215150;28;20010;-80
2022/12/19 01:19:57;;;;;;;65.25;27.92;;;;;;;;;;6214148;28;20013;-79
2022/12/19 01:22:57;;;;;;;67.40;29.17;;;;;;;;;;6214622;28;20014;-79
2022/12/19 01:25:58;;;;;;;59.20;23.40;;;;;;;;;;6214057;28;20478;-79
2022/12/19 01:28:58;;;;;;;80.80;34.90;;;;;;;;;;6215782;28;20584;-78
2022/12/19 01:31:58;;;;;;;91.35;42.72;;;;;;;;;;6207451;28;20276;-78
2022/12/19 01:34:58;;;;;;;121.53;57.40;;;;;;;;;;6213185;28;20117;-78
2022/12/19 01:37:58;;;;;;;120.63;52.17;;;;;;;;;;6212698;28;20228;-77
2022/12/19 01:40:58;;;;;;;104.07;47.72;;;;;;;;;;6216700;28;20025;-78
2022/12/19 01:44:06;;;;;;;110.00;51.33;;;;;;;;;;6220835;28;20043;-77
2022/12/19 01:47:10;;;;;;;95.05;48.45;;;;;;;;;;6213839;28;20036;-77
2022/12/19 01:50:13;;;;;;;120.43;53.25;;;;;;;;;;6213675;28;20506;-77
2022/12/19 01:53:13;;;;;;;117.85;55.80;;;;;;;;;;6219102;28;20561;-76
2022/12/19 01:56:13;;;;;;;128.53;60.53;;;;;;;;;;6216733;28;20059;-76
2022/12/19 01:59:16;;;;;;;134.63;61.27;;;;;;;;;;6218498;28;20037;-76
2022/12/19 02:02:33;;;;;;;117.72;60.70;;;;;;;;;;6216637;28;20029;-75
2022/12/19 02:05:33;;;;;;;124.85;54.15;;;;;;;;;;6214381;28;20485;-75
2022/12/19 02:08:34;;;;;;;108.23;51.27;;;;;;;;;;6214892;28;20026;-76
2022/12/19 02:11:34;;;;;;;117.17;48.63;;;;;;;;;;6212426;28;20114;-75
2022/12/19 02:14:34;;;;;;;109.20;48.30;;;;;;;;;;6219153;28;20014;-76
2022/12/19 02:18:07;;;;;;;78.37;39.23;;;;;;;;;;6210343;28;20014;-75
2022/12/19 02:21:26;;;;;;;98.78;47.10;;;;;;;;;;6171191;28;20026;-75
2022/12/19 02:24:35;;;;;;;94.80;42.47;;;;;;;;;;6188462;28;20041;-74
2022/12/19 02:27:38;;;;;;;84.93;42.38;;;;;;;;;;6208359;28;20022;-75
2022/12/19 02:30:57;;;;;;;78.32;35.90;;;;;;;;;;6207218;28;20136;-75
2022/12/19 02:34:10;;;;;;;84.63;35.10;;;;;;;;;;6211027;28;20056;-75
2022/12/19 02:37:12;;;;;;;95.30;43.53;;;;;;;;;;6209850;28;20014;-74
2022/12/19 02:40:15;;;;;;;95.30;42.72;;;;;;;;;;6210242;28;20046;-75
2022/12/19 02:43:16;;;;;;;93.03;42.08;;;;;;;;;;6209222;28;20018;-74
2022/12/19 02:46:17;;;;;;;91.45;43.35;;;;;;;;;;6211891;28;20535;-74
2022/12/19 02:49:18;;;;;;;102.47;46.60;;;;;;;;;;6212708;28;20018;-74
2022/12/19 02:52:18;;;;;;;117.63;57.47;;;;;;;;;;6213687;28;20370;-75
2022/12/19 02:55:20;;;;;;;136.13;62.72;;;;;;;;;;6217234;28;20045;-74
2022/12/19 02:58:41;;;;;;;111.90;55.58;;;;;;;;;;6216452;28;20108;-74
2022/12/19 03:01:44;;;;;;;101.00;49.88;;;;;;;;;;6220524;28;20116;-74
2022/12/19 03:05:08;;;;;;;103.72;54.03;;;;;;;;;;6217985;28;20037;-74
2022/12/19 03:08:15;;;;;;;111.22;57.60;;;;;;;;;;6186651;28;20038;-74
2022/12/19 03:11:16;;;;;;;129.80;64.63;;;;;;;;;;6230110;28;20025;-74
2022/12/19 03:14:18;;;;;;;128.33;63.63;;;;;;;;;;6216593;28;20014;-74
2022/12/19 03:17:18;;;;;;;123.03;62.83;;;;;;;;;;6231507;28;20036;-73
2022/12/19 03:20:31;;;;;;;116.37;56.53;;;;;;;;;;6216148;28;20266;-75
2022/12/19 03:23:31;;;;;;;110.47;54.47;;;;;;;;;;6226762;28;20093;-73
2022/12/19 03:26:35;;;;;;;127.50;60.10;;;;;;;;;;6219521;28;20024;-73
2022/12/19 03:29:38;;;;;;;118.28;54.28;;;;;;;;;;6216126;28;20096;-73
2022/12/19 03:32:40;;;;;;;122.85;57.03;;;;;;;;;;6214518;28;20056;-73
2022/12/19 03:35:42;;;;;;;131.88;57.15;;;;;;;;;;6216339;28;20037;-73
2022/12/19 03:38:43;;;;;;;112.78;51.38;;;;;;;;;;6221784;28;20117;-74
2022/12/19 03:45:04;;;;;;;105.47;44.13;;;;;;;;;;6213414;28;20022;-74
2022/12/19 03:48:07;;;;;;;85.90;39.33;;;;;;;;;;6217101;28;20029;-74
2022/12/19 03:51:15;;;;;;;87.07;39.55;;;;;;;;;;6216151;28;20026;-73
2022/12/19 03:54:17;;;;;;;76.30;35.92;;;;;;;;;;6217273;28;20443;-73
2022/12/19 03:57:29;;;;;;;84.35;34.80;;;;;;;;;;6212976;28;20770;-73
2022/12/19 04:00:30;;;;;;;67.40;28.73;;;;;;;;;;6207897;28;20018;-73
2022/12/19 04:03:30;;;;;;;60.45;25.95;;;;;;;;;;6219571;28;20215;-73
2022/12/19 04:06:31;;;;;;;66.33;27.53;;;;;;;;;;6220717;28;20223;-73
2022/12/19 04:09:32;;;;;;;54.05;23.70;;;;;;;;;;6217585;28;20390;-74
2022/12/19 04:12:35;;;;;;;46.75;22.83;;;;;;;;;;6215850;28;20014;-73
2022/12/19 04:15:48;;;;;;;49.70;21.83;;;;;;;;;;6209666;28;20029;-74
2022/12/19 04:18:53;;;;;;;56.15;21.98;;;;;;;;;;6232768;28;20040;-72
2022/12/19 04:21:59;;;;;;;50.88;21.23;;;;;;;;;;6215241;28;20024;-72
2022/12/19 04:25:03;;;;;;;60.47;27.75;;;;;;;;;;6218182;28;20026;-72
2022/12/19 04:28:06;;;;;;;67.13;27.92;;;;;;;;;;6211114;28;20524;-74
2022/12/19 04:31:10;;;;;;;52.17;24.38;;;;;;;;;;6216725;28;20018;-73
2022/12/19 04:34:10;;;;;;;56.63;25.35;;;;;;;;;;6214295;28;20592;-72
2022/12/19 04:37:10;;;;;;;58.55;23.90;;;;;;;;;;6214081;28;20057;-72
2022/12/19 04:40:11;;;;;;;63.73;24.90;;;;;;;;;;6214714;28;20046;-72
2022/12/19 04:43:11;;;;;;;62.33;25.27;;;;;;;;;;6210108;28;20518;-72
2022/12/19 04:46:11;;;;;;;54.00;24.50;;;;;;;;;;6210748;28;20028;-72
2022/12/19 04:49:11;;;;;;;56.30;25.80;;;;;;;;;;6216825;28;20049;-73
2022/12/19 04:52:11;;;;;;;54.42;21.98;;;;;;;;;;6213776;28;20022;-72
2022/12/19 04:55:12;;;;;;;61.47;25.87;;;;;;;;;;6216365;28;20024;-72
2022/12/19 04:58:12;;;;;;;59.10;25.37;;;;;;;;;;6213425;28;20014;-72
2022/12/19 05:01:13;;;;;;;53.90;26.17;;;;;;;;;;6210742;28;20413;-71
2022/12/19 05:04:13;;;;;;;62.43;25.73;;;;;;;;;;6212924;28;20187;-72
2022/12/19 05:07:13;;;;;;;61.43;26.23;;;;;;;;;;6207549;28;20030;-71
2022/12/19 05:10:13;;;;;;;63.00;27.87;;;;;;;;;;6211276;28;20025;-72
2022/12/19 05:13:13;;;;;;;62.03;24.97;;;;;;;;;;6212547;28;20029;-70
2022/12/19 05:16:15;;;;;;;46.47;18.95;;;;;;;;;;6212396;28;20041;-70
2022/12/19 05:19:15;;;;;;;60.47;24.57;;;;;;;;;;6221914;28;20401;-71
2022/12/19 05:22:15;;;;;;;48.17;22.10;;;;;;;;;;6214953;28;20021;-70
2022/12/19 05:25:15;;;;;;;55.10;24.60;;;;;;;;;;6212281;28;20025;-71
2022/12/19 05:28:16;;;;;;;60.73;25.10;;;;;;;;;;6217025;28;20018;-71
2022/12/19 05:31:18;;;;;;;51.92;24.15;;;;;;;;;;6196957;28;20116;-71
2022/12/19 05:34:18;;;;;;;68.88;26.48;;;;;;;;;;6211500;28;20541;-71
2022/12/19 05:37:19;;;;;;;55.57;23.23;;;;;;;;;;6207565;28;20021;-72
2022/12/19 05:40:19;;;;;;;43.47;18.80;;;;;;;;;;6209426;28;21212;-70
2022/12/19 05:43:19;;;;;;;55.28;23.48;;;;;;;;;;6209994;28;20041;-70
2022/12/19 05:46:20;;;;;;;51.70;28.77;;;;;;;;;;6213315;28;20310;-70
2022/12/19 05:49:20;;;;;;;63.70;29.43;;;;;;;;;;6212281;28;20048;-71
2022/12/19 05:52:20;;;;;;;62.67;27.50;;;;;;;;;;6210931;28;20021;-70
2022/12/19 05:55:21;;;;;;;55.23;24.77;;;;;;;;;;6212834;28;20751;-70
2022/12/19 05:58:21;;;;;;;61.13;27.80;;;;;;;;;;6205916;28;20018;-69
2022/12/19 06:01:23;;;;;;;68.95;32.90;;;;;;;;;;6213854;28;20014;-70
2022/12/19 06:04:23;;;;;;;89.15;40.22;;;;;;;;;;6205485;28;20052;-71
2022/12/19 06:07:23;;;;;;;101.50;44.27;;;;;;;;;;6208523;28;20482;-69
2022/12/19 06:10:23;;;;;;;96.13;44.23;;;;;;;;;;6204795;28;20029;-70
2022/12/19 06:13:24;;;;;;;75.65;37.80;;;;;;;;;;6205308;28;20061;-69
2022/12/19 06:16:25;;;;;;;91.43;39.07;;;;;;;;;;6202340;28;20037;-69
2022/12/19 06:19:25;;;;;;;79.97;40.50;;;;;;;;;;6210637;28;20021;-70
2022/12/19 06:22:25;;;;;;;83.03;35.63;;;;;;;;;;6212282;28;20537;-70
2022/12/19 06:25:26;;;;;;;76.60;33.60;;;;;;;;;;6216061;28;20026;-70
2022/12/19 06:28:27;;;;;;;93.63;42.42;;;;;;;;;;6208114;28;20030;-70
2022/12/19 06:31:27;;;;;;;81.30;36.80;;;;;;;;;;6209214;28;20473;-70
2022/12/19 06:34:27;;;;;;;82.83;37.53;;;;;;;;;;6215235;28;20405;-70
2022/12/19 06:37:27;;;;;;;88.90;41.70;;;;;;;;;;6214020;28;20470;-70
2022/12/19 06:43:46;;;;;;;89.75;42.97;;;;;;;;;;6212249;28;20065;-71
2022/12/19 06:46:46;;;;;;;86.33;39.83;;;;;;;;;;6216687;28;20321;-70
2022/12/19 06:49:47;;;;;;;85.70;41.83;;;;;;;;;;6212385;28;20030;-69
2022/12/19 06:52:47;;;;;;;99.27;41.53;;;;;;;;;;6223838;28;20261;-70
2022/12/19 06:55:49;;;;;;;100.37;47.30;;;;;;;;;;6217205;28;20021;-70
2022/12/19 06:58:49;;;;;;;96.10;42.30;;;;;;;;;;6210819;28;20026;-70
2022/12/19 07:02:12;;;;;;;81.50;37.00;;;;;;;;;;6215763;28;20022;-70
2022/12/19 07:05:12;;;;;;;78.85;36.92;;;;;;;;;;6213025;28;20036;-69
2022/12/19 07:08:12;;;;;;;70.67;35.43;;;;;;;;;;6214651;28;20018;-71
2022/12/19 07:11:12;;;;;;;90.13;42.00;;;;;;;;;;6217494;28;20302;-69
2022/12/19 07:14:13;;;;;;;92.45;42.10;;;;;;;;;;6207046;28;20556;-69
2022/12/19 07:17:13;;;;;;;85.87;42.57;;;;;;;;;;6208864;28;20364;-70
2022/12/19 07:20:14;;;;;;;86.13;39.67;;;;;;;;;;6203706;28;20026;-70
2022/12/19 07:23:16;;;;;;;80.47;37.17;;;;;;;;;;6212860;28;20112;-70
2022/12/19 07:26:17;;;;;;;70.82;35.42;;;;;;;;;;6213974;28;20061;-70
2022/12/19 07:29:17;;;;;;;86.97;36.40;;;;;;;;;;6212510;28;20507;-70
2022/12/19 07:32:17;;;;;;;94.20;37.43;;;;;;;;;;6214748;28;20473;-70
2022/12/19 07:35:21;;;;;;;98.25;41.67;;;;;;;;;;6213746;28;20225;-70
2022/12/19 07:38:21;;;;;;;90.60;40.65;;;;;;;;;;6227270;28;20410;-70
2022/12/19 07:41:22;;;;;;;76.57;35.83;;;;;;;;;;6213143;28;20113;-70
2022/12/19 07:44:22;;;;;;;71.10;31.63;;;;;;;;;;6214189;28;20049;-70
2022/12/19 07:47:22;;;;;;;75.30;33.53;;;;;;;;;;6218964;28;20033;-70
2022/12/19 07:50:22;;;;;;;76.37;32.20;;;;;;;;;;6220088;28;20101;-69
2022/12/19 07:53:23;;;;;;;68.30;29.52;;;;;;;;;;6210889;28;20112;-69
2022/12/19 07:56:23;;;;;;;63.17;30.20;;;;;;;;;;6210880;28;20421;-69
2022/12/19 07:59:23;;;;;;;71.10;29.80;;;;;;;;;;6213984;28;20018;-69
2022/12/19 08:02:23;;;;;;;65.82;30.85;;;;;;;;;;6216353;28;20446;-69
2022/12/19 08:05:24;;;;;;;86.13;36.70;;;;;;;;;;6214200;28;20083;-70
2022/12/19 08:08:24;;;;;;;85.50;37.00;;;;;;;;;;6213365;28;20468;-70
2022/12/19 08:11:28;;;;;;;86.23;38.23;;;;;;;;;;6212666;28;20420;-70
2022/12/19 08:14:28;;;;;;;96.32;40.53;;;;;;;;;;6221017;28;20064;-71
2022/12/19 08:17:29;;;;;;;87.37;41.03;;;;;;;;;;6213708;28;20018;-71
2022/12/19 08:20:29;;;;;;;80.15;36.00;;;;;;;;;;6203443;28;20382;-70
2022/12/19 08:23:29;;;;;;;86.63;40.95;;;;;;;;;;6213979;28;20014;-71
2022/12/19 08:26:29;;;;;;;85.45;38.95;;;;;;;;;;6212799;28;20057;-70
2022/12/19 08:29:30;;;;;;;96.53;41.93;;;;;;;;;;6224557;28;20269;-71
2022/12/19 08:32:30;;;;;;;87.97;42.13;;;;;;;;;;6211063;28;20033;-69
2022/12/19 08:35:30;;;;;;;93.68;43.42;;;;;;;;;;6207637;28;20366;-72
2022/12/19 08:38:31;;;;;;;73.33;35.20;;;;;;;;;;6209949;28;20598;-69
2022/12/19 08:41:31;;;;;;;76.53;33.53;;;;;;;;;;6212489;28;20120;-70
2022/12/19 08:44:31;;;;;;;83.20;39.22;;;;;;;;;;6210396;28;20436;-70
2022/12/19 08:47:31;;;;;;;93.82;37.42;;;;;;;;;;6211374;28;20284;-70
2022/12/19 08:50:31;;;;;;;77.10;39.17;;;;;;;;;;6216495;28;20061;-70
2022/12/19 08:53:33;;;;;;;111.15;51.42;;;;;;;;;;6209348;28;20264;-70
2022/12/19 08:56:33;;;;;;;101.65;50.60;;;;;;;;;;6213000;28;20080;-71
2022/12/19 08:59:33;;;;;;;123.38;63.00;;;;;;;;;;6208534;28;20447;-71
2022/12/19 09:02:33;;;;;;;91.68;41.45;;;;;;;;;;6209908;28;20021;-71
2022/12/19 09:05:33;;;;;;;130.13;60.83;;;;;;;;;;6208871;28;20057;-71
2022/12/19 09:08:34;;;;;;;139.98;64.43;;;;;;;;;;6208358;28;20109;-71
2022/12/19 09:11:34;;;;;;;136.03;67.20;;;;;;;;;;6209157;28;20837;-70
2022/12/19 09:14:35;;;;;;;159.17;75.60;;;;;;;;;;6200149;28;20030;-71
2022/12/19 09:17:35;;;;;;;123.13;60.33;;;;;;;;;;6210989;28;20486;-71
2022/12/19 09:20:35;;;;;;;173.50;76.57;;;;;;;;;;6206803;28;20053;-71
2022/12/19 09:23:35;;;;;;;135.17;59.53;;;;;;;;;;6203516;28;20014;-72
2022/12/19 09:26:38;;;;;;;139.93;69.73;;;;;;;;;;6205504;28;20018;-72
2022/12/19 09:29:38;;;;;;;158.98;70.60;;;;;;;;;;6212948;28;20113;-71
2022/12/19 09:32:38;;;;;;;131.43;62.73;;;;;;;;;;6199577;28;20308;-71
2022/12/19 09:35:38;;;;;;;128.10;54.22;;;;;;;;;;6206823;28;20553;-72
2022/12/19 09:38:38;;;;;;;133.77;55.50;;;;;;;;;;6206066;28;20046;-71
2022/12/19 09:41:39;;;;;;;102.77;46.00;;;;;;;;;;6207583;28;20196;-71
2022/12/19 09:44:42;;;;;;;100.63;45.50;;;;;;;;;;6206154;28;20057;-72
2022/12/19 09:47:43;;;;;;;101.88;45.35;;;;;;;;;;6205249;28;20264;-72
2022/12/19 09:50:47;;;;;;;97.70;44.70;;;;;;;;;;6207938;28;20030;-73
2022/12/19 09:54:10;;;;;;;85.60;40.85;;;;;;;;;;6210788;28;20065;-72
2022/12/19 09:57:17;;;;;;;98.85;43.83;;;;;;;;;;6209279;28;20044;-72
2022/12/19 10:00:18;;;;;;;87.05;40.30;;;;;;;;;;6214182;28;20149;-72
2022/12/19 10:03:33;;;;;;;101.18;42.58;;;;;;;;;;6210759;28;20025;-72
2022/12/19 10:06:34;;;;;;;88.82;40.10;;;;;;;;;;6209000;28;20053;-73
2022/12/19 10:09:34;;;;;;;87.33;40.17;;;;;;;;;;6213094;28;20097;-73
2022/12/19 10:12:41;;;;;;;81.77;39.47;;;;;;;;;;6210209;28;20063;-73
2022/12/19 10:15:51;;;;;;;90.00;37.60;;;;;;;;;;6208578;28;20496;-73
2022/12/19 10:19:14;;;;;;;89.78;34.17;;;;;;;;;;6212662;28;20014;-73
2022/12/19 10:22:29;;;;;;;74.32;33.30;;;;;;;;;;6213685;28;20101;-73
2022/12/19 10:25:41;;;;;;;74.97;36.10;;;;;;;;;;6211162;28;20382;-74
2022/12/19 10:28:51;;;;;;;72.22;33.95;;;;;;;;;;6208891;28;20022;-73
2022/12/19 10:31:57;;;;;;;75.55;34.63;;;;;;;;;;6214106;28;20508;-74
2022/12/19 10:34:58;;;;;;;67.90;29.17;;;;;;;;;;6216519;28;20104;-73
2022/12/19 10:38:07;;;;;;;68.60;31.07;;;;;;;;;;6212309;28;20049;-73
2022/12/19 10:41:07;;;;;;;58.78;29.85;;;;;;;;;;6211137;28;20021;-73
2022/12/19 10:44:09;;;;;;;70.57;30.87;;;;;;;;;;6211093;28;20628;-73
2022/12/19 10:47:09;;;;;;;;;;;;;;;;;;6204174;28;20037;-73
2022/12/19 10:50:15;;;;;;;71.15;29.13;;;;;;;;;;6209681;28;19913;-73
2022/12/19 10:53:15;;;;;;;66.63;29.92;;;;;;;;;;6202716;28;20026;-73
2022/12/19 10:56:20;;;;;;;66.43;31.53;;;;;;;;;;6194835;28;20033;-73
2022/12/19 10:59:21;;;;;;;55.03;27.90;;;;;;;;;;6200387;28;20207;-72
2022/12/19 11:02:33;;;;;;;58.30;26.80;;;;;;;;;;6198065;28;20219;-72
2022/12/19 11:05:49;;;;;;;65.72;32.33;;;;;;;;;;6208624;28;20017;-72
2022/12/19 11:08:49;;;;;;;66.65;34.83;;;;;;;;;;6211157;28;20478;-72
2022/12/19 11:11:56;;;;;;;58.03;29.90;;;;;;;;;;6210063;28;20036;-71
2022/12/19 11:15:14;;;;;;;73.78;36.90;;;;;;;;;;6206489;28;20029;-71
2022/12/19 11:18:15;;;;;;;69.05;36.58;;;;;;;;;;6212430;28;20417;-71
2022/12/19 11:21:22;;;;;;;60.28;32.35;;;;;;;;;;6211011;28;20381;-71
2022/12/19 11:24:24;;;;;;;73.63;37.28;;;;;;;;;;6214612;28;20442;-71
2022/12/19 11:27:29;;;;;;;75.05;36.47;;;;;;;;;;6208588;28;20037;-71
2022/12/19 11:30:29;;;;;;;71.53;36.95;;;;;;;;;;6208003;28;20054;-71
2022/12/19 11:33:30;;;;;;;73.07;37.37;;;;;;;;;;6200744;28;20053;-71
2022/12/19 11:36:53;;;;;;;62.37;35.53;;;;;;;;;;6212009;28;20025;-70
2022/12/19 11:39:53;;;;;;;87.90;41.72;;;;;;;;;;6168633;28;20050;-71
2022/12/19 11:42:57;;;;;;;92.10;44.88;;;;;;;;;;6188592;28;20088;-71
2022/12/19 11:46:05;;;;;;;79.30;41.92;;;;;;;;;;6188287;28;20025;-71
2022/12/19 11:49:15;;;;;;;76.22;39.05;;;;;;;;;;6176488;28;20562;-71
2022/12/19 11:52:21;;;;;;;79.63;41.15;;;;;;;;;;6195548;28;20522;-71
2022/12/19 11:55:24;;;;;;;71.10;38.45;;;;;;;;;;6180609;28;20018;-71
2022/12/19 11:58:27;;;;;;;83.45;40.13;;;;;;;;;;6198731;28;20062;-70
2022/12/19 12:01:50;;;;;;;67.93;36.88;;;;;;;;;;6185700;28;20014;-71
2022/12/19 12:05:00;;;;;;;93.47;44.92;;;;;;;;;;6168081;28;20038;-70
2022/12/19 12:08:19;;;;;;;94.65;48.28;;;;;;;;;;6184146;28;20014;-70
2022/12/19 12:11:38;;;;;;;103.40;52.03;;;;;;;;;;6186931;28;20061;-69
2022/12/19 12:15:02;;;;;;;101.15;53.05;;;;;;;;;;6201625;28;20034;-69
2022/12/19 12:18:02;;;;;;;99.88;47.40;;;;;;;;;;6173108;28;20516;-69
2022/12/19 12:21:20;;;;;;;110.32;53.42;;;;;;;;;;6183200;28;20482;-69
2022/12/19 12:24:38;;;;;;;110.78;51.58;;;;;;;;;;6193746;28;20061;-69
2022/12/19 12:27:46;;;;;;;97.80;47.35;;;;;;;;;;6189957;28;20018;-69
2022/12/19 12:30:46;;;;;;;105.38;51.42;;;;;;;;;;6190629;28;20456;-69
2022/12/19 12:33:55;;;;;;;106.78;49.92;;;;;;;;;;6180509;28;20387;-69
2022/12/19 12:37:14;;;;;;;111.93;53.80;;;;;;;;;;6183313;28;20497;-69
2022/12/19 12:40:26;;;;;;;112.72;57.47;;;;;;;;;;6207529;28;20052;-69
2022/12/19 12:43:26;;;;;;;109.80;53.17;;;;;;;;;;6206501;28;20662;-69
2022/12/19 12:46:30;;;;;;;118.35;58.58;;;;;;;;;;6200542;28;20033;-70
2022/12/19 12:49:38;;;;;;;100.78;50.95;;;;;;;;;;6214943;28;20021;-69
2022/12/19 12:52:44;;;;;;;99.10;49.05;;;;;;;;;;6211013;28;20025;-69
2022/12/19 12:55:45;;;;;;;97.45;45.63;;;;;;;;;;6208653;28;20722;-70
2022/12/19 12:58:45;;;;;;;92.47;47.90;;;;;;;;;;6205645;28;20254;-70
2022/12/19 13:01:49;;;;;;;142.23;58.35;;;;;;;;;;6210901;28;20054;-69
2022/12/19 13:04:54;;;;;;;109.22;51.17;;;;;;;;;;6215491;28;20423;-70
2022/12/19 13:07:54;;;;;;;99.72;48.95;;;;;;;;;;6205043;28;20239;-69
2022/12/19 13:10:56;;;;;;;91.10;46.03;;;;;;;;;;6212472;28;20505;-69
2022/12/19 13:13:57;;;;;;;289.08;116.88;;;;;;;;;;6217344;28;20150;-69
2022/12/19 13:16:57;;;;;;;231.77;94.57;;;;;;;;;;6212392;28;20036;-69
2022/12/19 13:20:03;;;;;;;127.60;56.10;;;;;;;;;;6218380;28;20018;-70
2022/12/19 13:23:18;;;;;;;93.05;45.30;;;;;;;;;;6204480;28;20021;-69
2022/12/19 13:26:41;;;;;;;91.25;44.15;;;;;;;;;;6208798;28;20514;-71
2022/12/19 13:29:54;;;;;;;93.45;46.42;;;;;;;;;;6196930;28;20306;-70
2022/12/19 13:32:54;;;;;;;85.28;45.38;;;;;;;;;;6205610;28;20028;-70
2022/12/19 13:35:54;;;;;;;89.63;43.60;;;;;;;;;;6205009;28;20030;-70
2022/12/19 13:38:57;;;;;;;83.27;43.40;;;;;;;;;;6201886;28;20050;-70
2022/12/19 13:45:30;;;;;;;92.60;42.58;;;;;;;;;;6206567;28;20034;-70
2022/12/19 13:48:30;;;;;;;102.40;47.33;;;;;;;;;;6216400;28;20021;-70
2022/12/19 13:52:00;;;;;;;140.55;60.17;;;;;;;;;;6214430;28;20050;-70
2022/12/19 13:55:01;;;;;;;101.68;46.53;;;;;;;;;;6190739;28;20030;-70
2022/12/19 13:58:02;;;;;;;93.07;44.53;;;;;;;;;;6207974;28;20021;-69
2022/12/19 14:01:03;;;;;;;;;;;;;;;;;;6203555;28;20038;-70
2022/12/19 14:04:04;;;;;;;83.05;39.75;;;;;;;;;;6208252;28;20245;-70
2022/12/19 14:07:17;;;;;;;81.15;37.63;;;;;;;;;;6209950;28;20109;-70
2022/12/19 14:10:22;;;;;;;80.10;38.28;;;;;;;;;;6205577;28;20474;-70
2022/12/19 14:16:42;;;;;;;70.68;34.65;;;;;;;;;;6210646;28;20457;-70
2022/12/19 14:19:52;;;;;;;62.60;29.97;;;;;;;;;;6215974;28;20084;-70
2022/12/19 14:22:59;;;;;;;82.30;36.60;;;;;;;;;;6203353;28;20398;-71
2022/12/19 14:25:59;;;;;;;71.90;34.13;;;;;;;;;;6208480;28;20432;-70
2022/12/19 14:29:07;;;;;;;68.90;34.10;;;;;;;;;;6208402;28;20010;-71
2022/12/19 14:32:07;;;;;;;70.45;35.42;;;;;;;;;;6212513;28;20022;-70
2022/12/19 14:35:08;;;;;;;72.03;34.50;;;;;;;;;;6207009;28;20034;-70
2022/12/19 14:38:15;;;;;;;61.43;34.90;;;;;;;;;;6208216;28;20054;-71
2022/12/19 14:44:57;;;;;;;65.28;33.67;;;;;;;;;;6206971;28;20462;-70
2022/12/19 14:47:57;;;;;;;64.97;33.83;;;;;;;;;;6216206;28;20028;-71
2022/12/19 14:51:01;;;;;;;69.70;33.47;;;;;;;;;;6219152;28;20049;-71
2022/12/19 14:54:05;;;;;;;65.47;33.08;;;;;;;;;;6210565;28;20022;-71
2022/12/19 14:57:14;;;;;;;58.53;30.52;;;;;;;;;;6220026;28;20021;-71
2022/12/19 15:00:20;;;;;;;54.60;29.75;;;;;;;;;;6217574;28;20021;-71
2022/12/19 15:03:23;;;;;;;64.07;30.80;;;;;;;;;;6211025;28;20021;-70
2022/12/19 15:06:28;;;;;;;61.85;30.30;;;;;;;;;;6209257;28;20122;-70
2022/12/19 15:09:28;;;;;;;57.47;28.35;;;;;;;;;;6220098;28;20308;-71
2022/12/19 15:16:00;;;;;;;59.58;31.60;;;;;;;;;;6207369;28;20026;-70
2022/12/19 15:19:00;;;;;;;63.97;32.42;;;;;;;;;;6209981;28;20057;-70
2022/12/19 15:22:02;;;;;;;64.63;34.30;;;;;;;;;;6211976;28;20024;-70
2022/12/19 15:25:03;;;;;;;70.72;37.42;;;;;;;;;;6213575;28;20426;-70
2022/12/19 15:28:10;;;;;;;58.88;31.42;;;;;;;;;;6212978;28;20080;-70
2022/12/19 15:31:25;;;;;;;91.75;46.88;;;;;;;;;;6225381;28;20057;-70
2022/12/19 15:34:26;;;;;;;102.78;52.45;;;;;;;;;;6223207;28;20105;-70
2022/12/19 15:37:26;;;;;;;80.10;45.15;;;;;;;;;;6208157;28;20026;-70
2022/12/19 15:40:26;;;;;;;97.95;52.20;;;;;;;;;;6221247;28;20053;-70
2022/12/19 15:43:28;;;;;;;105.30;57.23;;;;;;;;;;6210612;28;20282;-69
2022/12/19 15:46:29;;;;;;;116.93;59.17;;;;;;;;;;6225990;28;20030;-69
2022/12/19 15:49:31;;;;;;;102.87;48.47;;;;;;;;;;6218613;28;20029;-69
2022/12/19 15:52:31;;;;;;;79.10;43.33;;;;;;;;;;6210968;28;20088;-69
2022/12/19 15:55:32;;;;;;;86.55;43.08;;;;;;;;;;6209641;28;20018;-70
2022/12/19 15:58:32;;;;;;;89.73;46.80;;;;;;;;;;6214878;28;20026;-70
2022/12/19 16:01:32;;;;;;;85.90;43.90;;;;;;;;;;6213730;28;20022;-69
2022/12/19 16:04:32;;;;;;;88.57;41.40;;;;;;;;;;6214422;28;20362;-69
2022/12/19 16:07:32;;;;;;;109.87;56.77;;;;;;;;;;6204457;28;20120;-69
2022/12/19 16:10:33;;;;;;;60.88;29.58;;;;;;;;;;6211316;28;20390;-69
2022/12/19 16:13:34;;;;;;;71.80;37.07;;;;;;;;;;6205781;28;20065;-69
2022/12/19 16:16:34;;;;;;;65.93;36.63;;;;;;;;;;6207746;28;20053;-69
2022/12/19 16:19:34;;;;;;;68.50;34.23;;;;;;;;;;6201383;28;20160;-69
2022/12/19 16:22:34;;;;;;;68.15;35.08;;;;;;;;;;6201906;28;20022;-69
2022/12/19 16:25:45;;;;;;;74.33;36.70;;;;;;;;;;6200275;28;20018;-70
2022/12/19 16:28:45;;;;;;;75.22;37.22;;;;;;;;;;6205087;28;20482;-70
2022/12/19 16:31:45;;;;;;;67.30;33.97;;;;;;;;;;6213686;28;20026;-70
2022/12/19 16:34:45;;;;;;;70.40;34.97;;;;;;;;;;6212606;28;20033;-71
2022/12/19 16:37:46;;;;;;;70.73;35.70;;;;;;;;;;6211228;28;20053;-70
2022/12/19 16:40:47;;;;;;;76.87;39.03;;;;;;;;;;6211534;28;20295;-70
2022/12/19 16:43:47;;;;;;;67.35;36.78;;;;;;;;;;6212227;28;20026;-69
2022/12/19 16:46:48;;;;;;;73.70;39.00;;;;;;;;;;6204708;28;20381;-69
2022/12/19 16:49:48;;;;;;;74.13;37.23;;;;;;;;;;6209562;28;20513;-69
2022/12/19 16:52:49;;;;;;;67.17;35.40;;;;;;;;;;6213703;28;20111;-69
2022/12/19 16:55:49;;;;;;;53.67;30.67;;;;;;;;;;6212362;28;20029;-70
2022/12/19 16:58:50;;;;;;;73.07;36.43;;;;;;;;;;6215037;28;20068;-68
2022/12/19 17:01:50;;;;;;;67.78;37.90;;;;;;;;;;6211342;28;20950;-69
2022/12/19 17:04:51;;;;;;;67.07;34.78;;;;;;;;;;6207689;28;20022;-68
2022/12/19 17:07:51;;;;;;;57.75;28.83;;;;;;;;;;6211139;28;20026;-68
2022/12/19 17:10:52;;;;;;;70.37;35.73;;;;;;;;;;6209131;28;20553;-69
2022/12/19 17:13:55;;;;;;;59.83;32.03;;;;;;;;;;6214443;28;20017;-68
2022/12/19 17:16:57;;;;;;;73.65;36.40;;;;;;;;;;6214608;28;20014;-69
2022/12/19 17:19:57;;;;;;;75.28;34.83;;;;;;;;;;6203945;28;20049;-69
2022/12/19 17:22:57;;;;;;;65.13;34.63;;;;;;;;;;6199361;28;20022;-69
2022/12/19 17:26:00;;;;;;;63.73;33.47;;;;;;;;;;6202844;28;20022;-69
2022/12/19 17:29:00;;;;;;;69.10;33.85;;;;;;;;;;6210243;28;20053;-69
2022/12/19 17:32:01;;;;;;;73.35;36.17;;;;;;;;;;6197235;28;20033;-68
2022/12/19 17:35:02;;;;;;;71.83;32.93;;;;;;;;;;6204608;28;20540;-69
2022/12/19 17:38:02;;;;;;;74.60;35.70;;;;;;;;;;6205004;28;20070;-69
2022/12/19 17:41:02;;;;;;;66.37;32.67;;;;;;;;;;6201444;28;20386;-69
2022/12/19 17:44:02;;;;;;;61.05;32.25;;;;;;;;;;6198838;28;20018;-69
2022/12/19 17:47:03;;;;;;;72.17;33.33;;;;;;;;;;6209220;28;20109;-70
2022/12/19 17:50:03;;;;;;;60.50;31.47;;;;;;;;;;6210331;28;20047;-69
2022/12/19 17:53:04;;;;;;;76.97;35.03;;;;;;;;;;6222371;28;20033;-69
2022/12/19 17:56:07;;;;;;;70.57;36.23;;;;;;;;;;6210091;28;20018;-69
2022/12/19 17:59:07;;;;;;;73.75;36.53;;;;;;;;;;6209264;28;20021;-70
2022/12/19 18:02:21;;;;;;;76.70;39.65;;;;;;;;;;6203598;28;20026;-69
2022/12/19 18:05:24;;;;;;;83.72;41.00;;;;;;;;;;6211141;28;20025;-70